Time;durP1;ratioP1;P1;durP2;ratioP2;P2;SDS_P1;SDS_P2;PMS_P1;PMS_P2;Temp;Humidity;BMP_temperature;BMP_pressure;BME280_temperature;BME280_humidity;BME280_pressure;Samples;Min_cycle;Max_cycle;Signal;HPM_P1;HPM_P2
2022/05/25 00:02:19;;;;;;;0.80;0.80;;;6.90;99.90;;;;;;4923661;29;20481;-79
2022/05/25 00:04:45;;;;;;;0.80;0.80;;;6.80;99.90;;;;;;4917398;29;20027;-79
2022/05/25 00:07:12;;;;;;;5.53;0.82;;;6.80;99.90;;;;;;4916325;29;20096;-78
2022/05/25 00:09:38;;;;;;;1.10;0.93;;;6.70;99.90;;;;;;4910486;29;20092;-79
2022/05/25 00:12:05;;;;;;;1.25;0.90;;;6.70;99.90;;;;;;4917097;29;20020;-78
2022/05/25 00:14:32;;;;;;;2.15;1.05;;;6.70;99.90;;;;;;4917143;29;20024;-79
2022/05/25 00:16:58;;;;;;;1.23;0.90;;;6.80;99.90;;;;;;4916542;29;20036;-79
2022/05/25 00:22:08;;;;;;;2.10;1.20;;;6.90;99.90;;;;;;4916500;29;20580;-78
2022/05/25 00:24:34;;;;;;;0.68;0.68;;;6.90;99.90;;;;;;4926978;23;20044;-74
2022/05/25 00:26:59;;;;;;;1.15;0.88;;;6.80;99.90;;;;;;4893634;29;20032;-75
2022/05/25 00:29:25;;;;;;;0.52;0.52;;;6.80;99.90;;;;;;4916069;29;20032;-75
2022/05/25 00:31:51;;;;;;;1.02;0.93;;;6.80;99.90;;;;;;4916216;29;20119;-75
2022/05/25 00:34:17;;;;;;;1.88;0.80;;;6.80;99.90;;;;;;4904079;29;20080;-74
2022/05/25 00:36:43;;;;;;;7.22;1.50;;;6.80;99.90;;;;;;4897666;29;20045;-75
2022/05/25 00:39:09;;;;;;;1.75;0.77;;;6.70;99.90;;;;;;4897535;29;20410;-75
2022/05/25 00:41:35;;;;;;;0.80;0.80;;;6.70;99.90;;;;;;4897799;29;20474;-75
2022/05/25 00:44:01;;;;;;;1.20;1.10;;;6.60;99.90;;;;;;4896649;29;20021;-75
2022/05/25 00:46:29;;;;;;;0.85;0.70;;;6.60;99.90;;;;;;4897853;29;20076;-75
2022/05/25 00:48:59;;;;;;;0.85;0.80;;;6.60;99.90;;;;;;4897703;29;20029;-75
2022/05/25 00:51:58;;;;;;;1.38;0.80;;;6.50;99.90;;;;;;4897407;29;20035;-75
2022/05/25 00:54:28;;;;;;;0.50;0.50;;;6.50;99.90;;;;;;4894648;29;20052;-75
2022/05/25 00:56:58;;;;;;;0.70;0.70;;;6.40;99.90;;;;;;4897797;29;20036;-74
2022/05/25 00:59:32;;;;;;;0.80;0.80;;;6.30;99.90;;;;;;4897680;29;20032;-75
2022/05/25 01:01:58;;;;;;;1.20;0.95;;;6.20;99.90;;;;;;4880340;29;20036;-75
2022/05/25 01:04:25;;;;;;;0.60;0.60;;;6.20;99.90;;;;;;4897337;29;20490;-75
2022/05/25 01:07:40;;;;;;;0.70;0.70;;;6.10;99.90;;;;;;4897573;29;20033;-75
2022/05/25 01:10:14;;;;;;;2.05;0.60;;;6.10;99.90;;;;;;4874399;29;20045;-75
2022/05/25 01:13:14;;;;;;;2.72;0.98;;;6.00;99.90;;;;;;4897246;29;20462;-75
2022/05/25 01:15:54;;;;;;;1.80;0.98;;;5.90;99.90;;;;;;4894474;29;20040;-74
2022/05/25 01:18:25;;;;;;;0.70;0.70;;;5.90;99.90;;;;;;4897039;29;20028;-75
2022/05/25 01:21:20;;;;;;;0.70;0.70;;;5.80;99.90;;;;;;4897379;29;20084;-74
2022/05/25 01:24:07;;;;;;;1.02;0.80;;;5.80;99.90;;;;;;4936198;23;20051;-75
2022/05/25 01:26:54;;;;;;;0.80;0.73;;;5.80;99.90;;;;;;4945170;28;20475;-75
2022/05/25 01:29:38;;;;;;;0.98;0.80;;;5.80;99.90;;;;;;4960783;28;20030;-75
2022/05/25 01:32:26;;;;;;;1.25;0.60;;;5.70;99.90;;;;;;4971569;28;20031;-75
2022/05/25 01:35:18;;;;;;;0.95;0.50;;;5.70;99.90;;;;;;4964369;28;20042;-76
2022/05/25 01:38:01;;;;;;;0.63;0.63;;;5.70;99.90;;;;;;4971412;28;20504;-75
2022/05/25 01:40:47;;;;;;;5.72;0.77;;;5.60;99.90;;;;;;4971277;28;20027;-75
2022/05/25 01:43:19;;;;;;;0.60;0.60;;;5.70;99.90;;;;;;4971153;28;20379;-75
2022/05/25 01:45:47;;;;;;;;;;;5.70;99.90;;;;;;4971839;28;20073;-75
2022/05/25 01:48:17;;;;;;;0.50;0.50;;;5.60;99.90;;;;;;4970988;28;19906;-75
2022/05/25 01:50:55;;;;;;;2.55;0.88;;;5.60;99.90;;;;;;4972012;28;20015;-76
2022/05/25 01:53:26;;;;;;;0.68;0.68;;;5.60;99.90;;;;;;4964439;28;20053;-75
2022/05/25 01:55:56;;;;;;;0.80;0.80;;;5.50;99.90;;;;;;4964942;28;20030;-75
2022/05/25 01:58:24;;;;;;;0.77;0.73;;;5.60;99.90;;;;;;4964462;28;20026;-75
2022/05/25 02:00:55;;;;;;;0.52;0.52;;;5.70;99.90;;;;;;4971520;28;20090;-76
2022/05/25 02:06:18;;;;;;;3.08;0.60;;;5.50;99.90;;;;;;4965009;28;20066;-75
2022/05/25 02:09:11;;;;;;;0.68;0.68;;;5.50;99.90;;;;;;4970947;28;20078;-76
2022/05/25 02:11:46;;;;;;;0.52;0.52;;;5.40;99.90;;;;;;4965289;28;20014;-76
2022/05/25 02:14:21;;;;;;;0.70;0.70;;;5.40;99.90;;;;;;4970935;28;20125;-76
2022/05/25 02:17:10;;;;;;;0.93;0.80;;;5.40;99.90;;;;;;4970598;28;20043;-76
2022/05/25 02:20:14;;;;;;;0.68;0.68;;;5.40;99.90;;;;;;4970993;28;20019;-77
2022/05/25 02:22:45;;;;;;;0.40;0.40;;;5.30;99.90;;;;;;4929394;28;20042;-76
2022/05/25 02:25:37;;;;;;;0.60;0.60;;;5.30;99.90;;;;;;4960040;28;20031;-76
2022/05/25 02:28:12;;;;;;;0.57;0.57;;;5.30;99.90;;;;;;4965454;28;20026;-76
2022/05/25 02:30:43;;;;;;;1.13;0.60;;;5.30;99.90;;;;;;4971072;28;20018;-77
2022/05/25 02:33:24;;;;;;;0.63;0.63;;;5.30;99.90;;;;;;4970489;28;20563;-76
2022/05/25 02:35:51;;;;;;;1.00;0.50;;;5.30;99.90;;;;;;4970961;28;20043;-76
2022/05/25 02:38:18;;;;;;;0.63;0.63;;;5.40;99.90;;;;;;4970898;28;20790;-76
2022/05/25 02:40:44;;;;;;;0.85;0.50;;;5.30;99.90;;;;;;4971158;28;20022;-76
2022/05/25 02:43:10;;;;;;;0.68;0.68;;;5.30;99.90;;;;;;4970746;28;20082;-76
2022/05/25 02:45:37;;;;;;;0.50;0.50;;;5.20;99.90;;;;;;4970481;28;20031;-76
2022/05/25 02:48:03;;;;;;;0.80;0.80;;;5.20;99.90;;;;;;4970686;28;20479;-76
2022/05/25 02:50:29;;;;;;;0.63;0.63;;;5.30;99.90;;;;;;4970601;28;20022;-76
2022/05/25 02:55:22;;;;;;;2.05;0.63;;;5.20;99.90;;;;;;4891811;29;20453;-80
2022/05/25 02:57:48;;;;;;;0.70;0.70;;;5.20;99.90;;;;;;4895003;29;20072;-80
2022/05/25 03:00:14;;;;;;;0.93;0.90;;;5.10;99.90;;;;;;4878012;29;20442;-79
2022/05/25 03:02:40;;;;;;;0.98;0.90;;;5.20;99.90;;;;;;4895461;29;20021;-79
2022/05/25 03:05:08;;;;;;;0.73;0.68;;;5.20;99.90;;;;;;4893804;29;20036;-79
2022/05/25 03:07:35;;;;;;;1.63;1.00;;;5.30;99.90;;;;;;4897670;29;20021;-79
2022/05/25 03:10:02;;;;;;;1.05;0.70;;;5.30;99.90;;;;;;4881833;29;20025;-80
2022/05/25 03:12:27;;;;;;;0.70;0.70;;;5.40;99.90;;;;;;4898284;29;20021;-80
2022/05/25 03:14:53;;;;;;;0.75;0.73;;;5.50;99.90;;;;;;4898325;29;20035;-80
2022/05/25 03:17:19;;;;;;;0.82;0.80;;;5.50;99.90;;;;;;4898699;29;20576;-80
2022/05/25 03:19:54;;;;;;;1.38;0.90;;;5.50;99.90;;;;;;4898634;29;20024;-79
2022/05/25 03:22:20;;;;;;;0.77;0.77;;;5.60;99.90;;;;;;4898426;29;20035;-80
2022/05/25 03:24:46;;;;;;;1.85;0.80;;;5.60;99.90;;;;;;4898142;29;20056;-80
2022/05/25 03:27:13;;;;;;;0.70;0.70;;;5.60;99.90;;;;;;4898508;29;20063;-80
2022/05/25 03:29:39;;;;;;;1.15;0.65;;;5.60;99.90;;;;;;4898416;29;20032;-80
2022/05/25 03:32:05;;;;;;;0.70;0.70;;;5.60;99.90;;;;;;4898157;29;20033;-80
2022/05/25 03:34:32;;;;;;;0.70;0.70;;;5.60;99.90;;;;;;4898225;29;20025;-80
2022/05/25 03:36:57;;;;;;;0.70;0.70;;;5.70;99.90;;;;;;4898377;29;20041;-80
2022/05/25 03:39:25;;;;;;;0.75;0.75;;;5.80;99.90;;;;;;4898432;29;20547;-80
2022/05/25 03:41:56;;;;;;;0.75;0.70;;;5.80;99.90;;;;;;4898029;29;20500;-80
2022/05/25 03:44:23;;;;;;;0.80;0.77;;;5.80;99.90;;;;;;4891892;29;20092;-80
2022/05/25 03:46:50;;;;;;;2.35;0.98;;;5.80;99.90;;;;;;4898067;29;20063;-80
2022/05/25 03:49:16;;;;;;;1.00;0.60;;;5.80;99.90;;;;;;4897916;29;20088;-80
2022/05/25 03:51:43;;;;;;;1.40;0.80;;;5.80;99.90;;;;;;4898086;29;20032;-79
2022/05/25 03:54:09;;;;;;;1.00;0.90;;;5.80;99.90;;;;;;4927850;23;20095;-76
2022/05/25 03:56:35;;;;;;;0.50;0.50;;;5.70;99.90;;;;;;4936258;29;20655;-76
2022/05/25 03:59:00;;;;;;;1.08;0.98;;;5.70;99.90;;;;;;4936340;29;20032;-76
2022/05/25 04:01:26;;;;;;;0.82;0.80;;;5.60;99.90;;;;;;4919358;29;20031;-76
2022/05/25 04:03:52;;;;;;;0.60;0.60;;;5.60;99.90;;;;;;4935840;29;20055;-75
2022/05/25 04:06:18;;;;;;;1.70;0.60;;;5.60;99.90;;;;;;4918772;29;20110;-76
2022/05/25 04:08:43;;;;;;;0.95;0.85;;;5.50;99.90;;;;;;4935154;29;20072;-76
2022/05/25 04:11:09;;;;;;;2.08;0.63;;;5.60;99.90;;;;;;4918263;29;20035;-76
2022/05/25 04:13:35;;;;;;;1.15;0.73;;;5.60;99.90;;;;;;4918506;29;20060;-75
2022/05/25 04:16:00;;;;;;;0.68;0.68;;;5.60;99.90;;;;;;4935398;29;20028;-76
2022/05/25 04:18:26;;;;;;;1.90;1.08;;;5.70;99.90;;;;;;4935178;29;20032;-76
2022/05/25 04:20:52;;;;;;;1.52;0.70;;;5.70;99.90;;;;;;4935743;29;20506;-76
2022/05/25 04:23:20;;;;;;;0.70;0.70;;;5.80;99.90;;;;;;4935041;29;20024;-76
2022/05/25 04:25:45;;;;;;;0.60;0.60;;;5.80;99.90;;;;;;4934789;29;20043;-76
2022/05/25 04:28:11;;;;;;;0.63;0.60;;;5.90;99.90;;;;;;4935325;29;20027;-76
2022/05/25 04:30:37;;;;;;;1.08;0.98;;;6.00;99.90;;;;;;4935202;29;20115;-76
2022/05/25 04:33:02;;;;;;;0.70;0.70;;;6.20;99.90;;;;;;4935182;29;20030;-76
2022/05/25 04:35:28;;;;;;;1.10;1.00;;;6.30;99.90;;;;;;4935238;29;20512;-76
2022/05/25 04:37:57;;;;;;;4.63;0.80;;;6.40;99.90;;;;;;4935017;29;20036;-76
2022/05/25 04:40:33;;;;;;;1.10;0.80;;;6.60;99.90;;;;;;4934686;29;20083;-76
2022/05/25 04:43:01;;;;;;;0.77;0.70;;;6.80;99.90;;;;;;4934816;29;20035;-75
2022/05/25 04:45:28;;;;;;;0.93;0.80;;;7.00;99.90;;;;;;4917866;29;20054;-76
2022/05/25 04:47:58;;;;;;;3.00;0.75;;;7.00;99.90;;;;;;4935018;29;20030;-76
2022/05/25 04:50:27;;;;;;;1.00;0.90;;;7.10;99.90;;;;;;4934422;29;20032;-76
2022/05/25 04:58:27;;;;;;;0.90;0.90;;;7.50;99.90;;;;;;4967571;28;20150;-80
2022/05/25 05:00:54;;;;;;;0.93;0.70;;;7.60;99.90;;;;;;4966804;28;20503;-80
2022/05/25 05:03:21;;;;;;;1.05;0.93;;;7.70;99.90;;;;;;4950890;29;20024;-80
2022/05/25 05:05:47;;;;;;;0.90;0.90;;;7.80;99.90;;;;;;4952665;29;20090;-80
2022/05/25 05:08:13;;;;;;;1.10;0.70;;;7.90;99.90;;;;;;4952727;29;20023;-80
2022/05/25 05:10:40;;;;;;;1.45;0.90;;;8.00;99.90;;;;;;4952666;29;20175;-80
2022/05/25 05:13:07;;;;;;;0.77;0.75;;;8.10;99.90;;;;;;4952396;28;20023;-80
2022/05/25 05:15:39;;;;;;;0.75;0.75;;;8.30;99.90;;;;;;4935446;29;20043;-79
2022/05/25 05:18:07;;;;;;;3.78;0.95;;;8.80;99.90;;;;;;4953454;29;20151;-79
2022/05/25 05:20:32;;;;;;;2.38;0.98;;;9.10;99.90;;;;;;4952711;29;20019;-79
2022/05/25 05:22:58;;;;;;;4.07;1.30;;;9.90;99.90;;;;;;4952405;28;20034;-79
2022/05/25 05:25:25;;;;;;;3.45;0.82;;;10.40;99.90;;;;;;4935573;29;20027;-79
2022/05/25 05:27:52;;;;;;;3.28;0.98;;;10.60;99.90;;;;;;4952177;28;20019;-79
2022/05/25 05:30:21;;;;;;;4.07;2.13;;;10.90;99.90;;;;;;4951914;29;20042;-79
2022/05/25 05:32:47;;;;;;;3.90;1.20;;;11.10;99.90;;;;;;4952833;29;20031;-79
2022/05/25 05:35:13;;;;;;;1.60;0.85;;;11.50;99.90;;;;;;4945380;29;20547;-80
2022/05/25 05:37:46;;;;;;;2.75;1.10;;;11.70;99.90;;;;;;4934869;29;20490;-79
2022/05/25 05:40:16;;;;;;;2.72;0.90;;;11.90;99.90;;;;;;4951756;29;20061;-78
2022/05/25 05:42:45;;;;;;;0.88;0.60;;;12.10;99.90;;;;;;4952231;29;20027;-80
2022/05/25 05:45:33;;;;;;;1.63;0.88;;;12.30;99.90;;;;;;4951716;28;20376;-79
2022/05/25 05:48:23;;;;;;;5.88;1.50;;;12.50;99.90;;;;;;4928449;29;20480;-79
2022/05/25 05:50:54;;;;;;;1.83;0.35;;;12.60;99.90;;;;;;4946648;29;20023;-79
2022/05/25 05:53:20;;;;;;;0.52;0.40;;;12.70;99.90;;;;;;4961253;23;20007;-76
2022/05/25 05:55:46;;;;;;;2.17;0.38;;;12.70;99.90;;;;;;4902471;29;20051;-76
2022/05/25 05:58:12;;;;;;;0.98;0.40;;;12.80;99.90;;;;;;4885157;29;20044;-76
2022/05/25 06:00:39;;;;;;;1.13;0.60;;;12.90;99.90;;;;;;4882408;29;20058;-76
2022/05/25 06:03:05;;;;;;;3.10;0.65;;;13.00;99.90;;;;;;4897113;29;20029;-76
2022/05/25 06:05:32;;;;;;;1.10;0.50;;;13.20;99.90;;;;;;4896592;29;20024;-76
2022/05/25 06:08:15;;;;;;;2.70;0.50;;;13.40;99.90;;;;;;4903444;29;20029;-76
2022/05/25 06:10:41;;;;;;;2.45;0.43;;;13.50;99.90;;;;;;4896615;29;20021;-76
2022/05/25 06:13:07;;;;;;;6.93;1.00;;;13.70;99.90;;;;;;4896912;29;20032;-76
2022/05/25 06:21:08;;;;;;;3.80;0.80;;;14.00;99.90;;;;;;4896774;29;20043;-76
2022/05/25 06:23:33;;;;;;;3.03;0.47;;;13.90;99.90;;;;;;4896565;29;20039;-76
2022/05/25 06:25:59;;;;;;;1.58;0.95;;;13.90;99.90;;;;;;4897411;29;20021;-77
2022/05/25 06:28:25;;;;;;;2.25;0.38;;;13.90;99.90;;;;;;4896383;29;20063;-77
2022/05/25 06:30:51;;;;;;;1.85;0.30;;;14.00;99.90;;;;;;4896083;29;20025;-77
2022/05/25 06:33:17;;;;;;;6.97;0.70;;;14.10;99.90;;;;;;4896546;29;20093;-76
2022/05/25 06:35:42;;;;;;;2.95;0.80;;;14.20;99.90;;;;;;4896647;29;20040;-76
2022/05/25 06:38:08;;;;;;;6.72;0.77;;;14.20;99.90;;;;;;4896252;29;20024;-77
2022/05/25 06:40:34;;;;;;;3.35;0.40;;;14.20;99.90;;;;;;4898189;29;20033;-76
2022/05/25 06:42:59;;;;;;;1.80;0.47;;;14.20;99.90;;;;;;4899809;29;20025;-77
2022/05/25 06:45:25;;;;;;;4.35;0.75;;;14.30;99.90;;;;;;4900076;29;20055;-76
2022/05/25 06:47:51;;;;;;;4.13;0.60;;;14.30;99.90;;;;;;4900084;29;20021;-77
2022/05/25 06:50:17;;;;;;;3.92;0.77;;;14.30;99.90;;;;;;4900185;29;20029;-76
2022/05/25 06:52:43;;;;;;;4.15;0.80;;;14.30;99.90;;;;;;4900228;29;20017;-76
2022/05/25 06:55:09;;;;;;;4.15;0.70;;;14.30;99.90;;;;;;4900973;29;20363;-77
2022/05/25 06:57:34;;;;;;;2.85;0.73;;;14.40;99.90;;;;;;4899752;29;20052;-76
2022/05/25 07:00:00;;;;;;;6.32;0.68;;;14.50;99.90;;;;;;4899898;29;20025;-77
2022/05/25 07:02:26;;;;;;;2.60;0.52;;;14.60;99.90;;;;;;4899825;29;20021;-76
2022/05/25 07:04:53;;;;;;;1.25;0.30;;;14.60;99.90;;;;;;4899861;29;20032;-77
2022/05/25 07:07:19;;;;;;;2.88;0.68;;;14.70;99.90;;;;;;4899464;29;20405;-76
2022/05/25 07:09:45;;;;;;;3.20;0.43;;;14.70;99.90;;;;;;4899220;29;20047;-77
2022/05/25 07:12:11;;;;;;;2.55;0.22;;;14.70;99.90;;;;;;4899420;29;20481;-76
2022/05/25 07:14:37;;;;;;;0.80;0.50;;;14.80;99.90;;;;;;4899792;29;20449;-77
2022/05/25 07:17:03;;;;;;;2.88;0.57;;;14.70;99.90;;;;;;4899242;29;20399;-76
2022/05/25 07:19:29;;;;;;;5.10;0.60;;;14.70;99.90;;;;;;4899578;29;20032;-77
2022/05/25 07:21:55;;;;;;;5.28;0.40;;;14.70;99.90;;;;;;4899236;29;20556;-77
2022/05/25 08:23:54;;;;;;;3.85;0.68;;;15.90;99.90;;;;;;5673568;23;19927;-76
2022/05/25 08:26:20;;;;;;;3.10;0.75;;;16.00;99.90;;;;;;4934841;29;20027;-76
2022/05/25 08:28:45;;;;;;;5.80;0.50;;;16.00;99.90;;;;;;4917744;29;20126;-76
2022/05/25 08:31:11;;;;;;;8.73;1.10;;;16.10;99.90;;;;;;4917567;29;20028;-75
2022/05/25 08:33:37;;;;;;;8.88;1.10;;;16.00;99.90;;;;;;4937089;29;20512;-76
2022/05/25 08:36:03;;;;;;;2.95;0.35;;;16.10;99.90;;;;;;4900325;29;20048;-76
2022/05/25 08:38:28;;;;;;;2.03;0.55;;;16.20;99.90;;;;;;4899526;29;20024;-76
2022/05/25 08:40:55;;;;;;;5.40;0.73;;;16.20;99.90;;;;;;4917000;29;20032;-76
2022/05/25 08:43:34;;;;;;;1.85;0.57;;;16.00;99.90;;;;;;4898924;29;20135;-76
2022/05/25 08:46:04;;;;;;;6.78;1.00;;;15.90;99.90;;;;;;4898980;29;20024;-75
2022/05/25 08:48:32;;;;;;;3.53;0.40;;;15.70;99.90;;;;;;4898723;29;20115;-76
2022/05/25 08:51:03;;;;;;;3.47;0.60;;;15.70;99.90;;;;;;4898535;29;20020;-76
2022/05/25 08:53:28;;;;;;;4.03;0.63;;;15.60;99.90;;;;;;4905739;29;20083;-76
2022/05/25 08:56:17;;;;;;;2.72;0.50;;;15.80;99.90;;;;;;4898466;29;20027;-75
2022/05/25 08:58:49;;;;;;;1.95;0.63;;;15.80;99.90;;;;;;4916436;29;20020;-76
2022/05/25 09:01:26;;;;;;;2.65;0.63;;;16.00;99.90;;;;;;4898909;29;20035;-75
2022/05/25 09:04:11;;;;;;;2.97;0.95;;;16.10;99.90;;;;;;4915900;29;20055;-76
2022/05/25 09:06:57;;;;;;;6.80;1.30;;;16.20;99.90;;;;;;4915495;29;20028;-77
2022/05/25 09:09:36;;;;;;;2.83;0.90;;;16.40;99.90;;;;;;4914905;29;20020;-77
2022/05/25 09:12:26;;;;;;;4.22;0.55;;;16.70;99.90;;;;;;4898906;29;20119;-77
2022/05/25 09:15:05;;;;;;;7.57;0.73;;;16.70;99.90;;;;;;4916137;29;20024;-78
2022/05/25 09:17:47;;;;;;;3.03;0.60;;;16.90;99.90;;;;;;4914933;29;20028;-78
2022/05/25 09:20:16;;;;;;;4.15;0.70;;;17.00;99.90;;;;;;4898282;29;20609;-78
2022/05/25 09:22:43;;;;;;;9.85;1.63;;;17.00;99.90;;;;;;4898437;29;20028;-77
2022/05/25 10:24:43;;;;;;;7.32;1.42;;;17.60;99.90;;;;;;5350872;23;20497;-76
2022/05/25 10:27:41;;;;;;;7.38;1.17;;;17.30;99.90;;;;;;4922804;29;20020;-76
2022/05/25 10:36:48;;;;;;;6.40;0.95;;;16.40;99.90;;;;;;4915155;29;20078;-76
2022/05/25 10:39:24;;;;;;;2.58;0.77;;;16.30;99.90;;;;;;4909485;29;20035;-76
2022/05/25 10:42:11;;;;;;;5.28;1.27;;;16.30;99.90;;;;;;4897698;29;20426;-76
2022/05/25 10:45:06;;;;;;;3.90;0.90;;;16.20;99.90;;;;;;4907718;29;20047;-76
2022/05/25 10:47:57;;;;;;;7.15;1.33;;;16.00;99.90;;;;;;4886525;29;20040;-77
2022/05/25 10:50:32;;;;;;;4.38;1.00;;;16.10;99.90;;;;;;4914295;29;20088;-76
2022/05/25 10:53:07;;;;;;;6.85;1.05;;;16.10;99.90;;;;;;4914920;29;20052;-76
2022/05/25 10:56:04;;;;;;;7.93;0.90;;;15.90;99.90;;;;;;4891191;29;20096;-76
2022/05/25 10:58:39;;;;;;;3.28;1.27;;;15.70;99.90;;;;;;4914655;29;20031;-76
2022/05/25 11:01:29;;;;;;;6.35;1.98;;;15.50;99.90;;;;;;4910563;29;20088;-76
2022/05/25 11:04:40;;;;;;;9.50;1.15;;;15.50;99.90;;;;;;4911476;29;20051;-76
2022/05/25 11:07:23;;;;;;;6.50;0.88;;;15.40;99.90;;;;;;4896067;29;20473;-74
2022/05/25 11:10:01;;;;;;;5.55;1.00;;;15.50;99.90;;;;;;4913735;29;20044;-76
2022/05/25 11:12:48;;;;;;;8.82;0.88;;;15.30;99.90;;;;;;4914311;29;20066;-77
2022/05/25 11:15:29;;;;;;;10.48;1.02;;;15.10;99.90;;;;;;4914028;29;20032;-76
2022/05/25 11:18:05;;;;;;;4.07;0.95;;;14.80;99.90;;;;;;4894706;29;20032;-76
2022/05/25 17:17:32;;;;;;;15.93;2.97;;;16.60;99.90;;;;;;5127283;27;20383;-80
2022/05/25 17:22:43;;;;;;;13.52;2.25;;;16.20;99.90;;;;;;5131092;27;20517;-81
2022/05/25 17:25:09;;;;;;;14.18;3.35;;;16.50;99.90;;;;;;5112075;28;20020;-80
2022/05/25 17:27:35;;;;;;;9.38;2.35;;;16.60;99.90;;;;;;5099477;28;20795;-82
2022/05/25 17:30:03;;;;;;;10.85;2.35;;;16.70;99.90;;;;;;5106459;28;20020;-81
2022/05/25 17:32:31;;;;;;;11.10;2.45;;;16.60;99.90;;;;;;5106699;28;20069;-81
2022/05/25 17:34:58;;;;;;;16.65;3.03;;;16.60;99.90;;;;;;5106049;28;20118;-81
2022/05/25 17:42:54;;;;;;;10.98;2.50;;;16.10;99.90;;;;;;5112681;28;20089;-81
2022/05/25 17:45:21;;;;;;;14.52;3.05;;;16.00;99.90;;;;;;5107194;28;20479;-81
2022/05/25 17:47:47;;;;;;;12.25;3.05;;;15.90;99.90;;;;;;5105262;28;20020;-80
2022/05/25 17:50:14;;;;;;;12.55;3.17;;;15.90;99.90;;;;;;5113686;28;20106;-82
2022/05/25 17:52:41;;;;;;;11.88;2.63;;;15.80;99.90;;;;;;5112443;28;20561;-82
2022/05/25 17:55:07;;;;;;;11.00;2.53;;;15.80;99.90;;;;;;5120082;22;20043;-80
2022/05/25 17:57:35;;;;;;;15.43;2.75;;;15.90;99.90;;;;;;5104093;28;20055;-82
2022/05/25 18:00:01;;;;;;;13.02;3.58;;;15.90;99.90;;;;;;5104469;28;20038;-82
2022/05/25 18:02:27;;;;;;;5.97;2.42;;;15.90;99.90;;;;;;5109002;28;20023;-84
2022/05/25 18:04:52;;;;;;;13.73;2.63;;;15.90;99.90;;;;;;5094722;28;20107;-82
2022/05/25 18:07:22;;;;;;;9.02;2.10;;;16.00;99.90;;;;;;5082539;28;20027;-84
2022/05/25 18:09:51;;;;;;;12.77;2.30;;;15.90;99.90;;;;;;5090814;28;20016;-83
2022/05/25 18:12:17;;;;;;;6.65;1.90;;;15.90;99.90;;;;;;5089326;28;20030;-82
2022/05/25 18:14:52;;;;;;;11.38;2.13;;;15.90;99.90;;;;;;5086708;28;20020;-82
2022/05/25 18:17:20;;;;;;;7.55;2.30;;;15.90;99.90;;;;;;5075380;28;20121;-81
2022/05/25 18:19:45;;;;;;;11.05;2.00;;;15.90;99.90;;;;;;5068692;28;20122;-82
2022/05/25 18:22:12;;;;;;;9.60;2.20;;;15.80;99.90;;;;;;5072076;28;20028;-81
2022/05/25 18:24:38;;;;;;;7.57;1.95;;;15.80;99.90;;;;;;5067648;28;20024;-81
2022/05/25 18:27:04;;;;;;;7.05;2.03;;;15.70;99.90;;;;;;5067772;28;20031;-82
2022/05/25 18:29:30;;;;;;;9.75;2.45;;;15.60;99.90;;;;;;5068519;28;20105;-81
2022/05/25 18:31:56;;;;;;;7.97;1.85;;;15.60;99.90;;;;;;5077479;28;20064;-82
2022/05/25 18:34:22;;;;;;;10.00;2.08;;;15.60;99.90;;;;;;5050978;28;20056;-84
2022/05/25 18:36:48;;;;;;;12.55;2.42;;;15.60;99.90;;;;;;5068837;28;20025;-81
2022/05/25 18:39:14;;;;;;;11.60;2.05;;;15.60;99.90;;;;;;5069371;28;20481;-81
2022/05/25 18:41:43;;;;;;;7.45;1.63;;;15.50;99.90;;;;;;5077784;28;20024;-80
2022/05/25 18:44:10;;;;;;;9.30;1.90;;;15.50;99.90;;;;;;5074929;28;20085;-84
2022/05/25 18:46:36;;;;;;;15.18;2.40;;;15.60;99.90;;;;;;5052160;28;20103;-83
2022/05/25 18:49:03;;;;;;;9.32;2.50;;;15.60;99.90;;;;;;5068729;28;20473;-82
2022/05/25 18:51:28;;;;;;;12.55;2.22;;;15.50;99.90;;;;;;5068671;28;20028;-82
2022/05/25 18:53:54;;;;;;;9.52;2.40;;;15.50;99.90;;;;;;5068011;28;20039;-82
2022/05/25 18:56:20;;;;;;;13.13;2.22;;;15.40;99.90;;;;;;5069366;28;20051;-83
2022/05/25 18:58:46;;;;;;;14.25;1.95;;;15.20;99.90;;;;;;5055588;28;20013;-82
2022/05/25 19:01:13;;;;;;;8.05;2.00;;;15.20;99.90;;;;;;5070899;28;20033;-89
2022/05/25 19:03:40;;;;;;;10.57;3.28;;;15.20;99.90;;;;;;5071589;28;20105;-87
2022/05/25 19:06:06;;;;;;;11.13;2.17;;;15.20;99.90;;;;;;5072740;28;20025;-86
2022/05/25 19:08:32;;;;;;;13.70;2.20;;;15.20;99.90;;;;;;5076368;28;20037;-78
2022/05/25 19:10:59;;;;;;;8.80;3.17;;;15.10;99.90;;;;;;5067250;28;20059;-78
2022/05/25 19:13:25;;;;;;;8.43;2.20;;;15.10;99.90;;;;;;5075202;28;20063;-79
2022/05/25 19:15:50;;;;;;;8.15;2.17;;;15.00;99.90;;;;;;5064521;28;20093;-79
2022/05/25 19:18:16;;;;;;;10.95;1.98;;;14.90;99.90;;;;;;5075769;28;20028;-78
2022/05/25 19:20:42;;;;;;;11.90;1.90;;;14.90;99.90;;;;;;5071625;28;20024;-79
2022/05/25 19:23:24;;;;;;;9.30;2.45;;;15.00;99.90;;;;;;5075988;28;20017;-79
2022/05/25 19:25:59;;;;;;;7.30;1.77;;;14.90;99.90;;;;;;5082988;22;20074;-85
2022/05/25 19:28:25;;;;;;;11.07;2.47;;;14.90;99.90;;;;;;5065925;28;20016;-85
2022/05/25 19:30:51;;;;;;;10.93;2.85;;;14.90;99.90;;;;;;5070858;28;20020;-83
2022/05/25 19:33:17;;;;;;;6.95;1.45;;;14.90;99.90;;;;;;5071069;28;20031;-84
2022/05/25 19:35:47;;;;;;;7.00;1.60;;;14.80;99.90;;;;;;5035855;28;20044;-82
2022/05/25 19:38:16;;;;;;;8.35;2.13;;;14.80;99.90;;;;;;5048052;28;20017;-82
2022/05/25 19:40:48;;;;;;;13.73;2.03;;;14.70;99.90;;;;;;5050891;28;20020;-82
2022/05/25 19:43:23;;;;;;;9.50;1.85;;;14.60;99.90;;;;;;5045004;28;20024;-81
2022/05/25 19:45:50;;;;;;;8.25;1.50;;;14.50;99.90;;;;;;5041378;28;20029;-84
2022/05/25 19:48:16;;;;;;;9.50;1.80;;;14.40;99.90;;;;;;5042772;28;20128;-83
2022/05/25 19:50:53;;;;;;;7.13;1.60;;;14.30;99.90;;;;;;5039866;28;20115;-84
2022/05/25 19:53:22;;;;;;;7.72;2.15;;;14.30;99.90;;;;;;5039015;28;20035;-84
2022/05/25 19:55:48;;;;;;;5.03;1.50;;;14.30;99.90;;;;;;5040579;28;20520;-85
2022/05/25 19:58:15;;;;;;;10.98;1.88;;;14.20;99.90;;;;;;5045104;28;20029;-88
2022/05/25 20:00:41;;;;;;;7.53;1.50;;;14.20;99.90;;;;;;5044046;28;20032;-86
2022/05/25 20:03:07;;;;;;;11.85;2.55;;;14.20;99.90;;;;;;5038697;28;20021;-88
2022/05/25 20:05:33;;;;;;;8.55;1.85;;;14.20;99.90;;;;;;5023681;28;20029;-88
2022/05/25 20:07:59;;;;;;;9.15;1.80;;;14.10;99.90;;;;;;5041956;28;20044;-87
2022/05/25 20:10:29;;;;;;;8.43;1.73;;;14.00;99.90;;;;;;5048820;28;20484;-89
2022/05/25 20:12:58;;;;;;;10.40;1.40;;;14.00;99.90;;;;;;5050671;28;20032;-89
2022/05/25 20:15:38;;;;;;;11.23;1.80;;;13.90;99.90;;;;;;5048903;28;20509;-88
2022/05/25 20:18:15;;;;;;;11.63;1.75;;;13.90;99.90;;;;;;5050869;28;20424;-90
2022/05/25 20:20:41;;;;;;;8.65;2.42;;;13.70;99.90;;;;;;5045561;28;20086;-88
2022/05/25 20:23:15;;;;;;;12.85;1.67;;;13.70;99.90;;;;;;5044919;28;20032;-87
2022/05/25 20:25:42;;;;;;;9.43;1.05;;;13.70;99.90;;;;;;5052366;22;20041;-83
2022/05/25 20:28:17;;;;;;;11.00;1.70;;;13.60;99.90;;;;;;5026491;28;20094;-85
2022/05/25 20:30:43;;;;;;;7.70;1.77;;;13.60;99.90;;;;;;5026143;28;20079;-83
2022/05/25 20:33:13;;;;;;;13.27;2.30;;;13.60;99.90;;;;;;5026400;28;20702;-84
2022/05/25 20:35:41;;;;;;;13.07;1.77;;;13.50;99.90;;;;;;5027029;28;20029;-82
2022/05/25 20:38:07;;;;;;;11.68;2.03;;;13.40;99.90;;;;;;5025468;28;20025;-84
2022/05/25 20:40:33;;;;;;;6.80;1.67;;;13.40;99.90;;;;;;5026872;28;20038;-88
2022/05/25 20:42:58;;;;;;;15.93;2.47;;;13.40;99.90;;;;;;5025952;28;20498;-85
2022/05/25 20:45:24;;;;;;;8.43;1.75;;;13.30;99.90;;;;;;5026542;28;20371;-85
2022/05/25 20:47:56;;;;;;;6.95;2.28;;;13.20;99.90;;;;;;5027166;28;20546;-86
2022/05/25 20:50:23;;;;;;;7.55;1.48;;;13.20;99.90;;;;;;5026914;28;20034;-85
2022/05/25 20:52:49;;;;;;;9.30;1.88;;;13.20;99.90;;;;;;5026741;28;20124;-85
2022/05/25 20:55:17;;;;;;;3.90;1.42;;;13.10;99.90;;;;;;5026979;28;20113;-84
2022/05/25 20:57:46;;;;;;;6.88;2.05;;;13.10;99.90;;;;;;5017930;28;20463;-84
2022/05/25 21:00:37;;;;;;;5.22;1.52;;;13.00;99.90;;;;;;5025842;28;20810;-83
2022/05/25 21:03:07;;;;;;;13.82;2.42;;;12.90;99.90;;;;;;5024184;28;20139;-84
2022/05/25 21:05:33;;;;;;;4.53;1.60;;;12.80;99.90;;;;;;5025977;28;20040;-84
2022/05/25 21:08:01;;;;;;;7.70;1.60;;;12.70;99.90;;;;;;5035827;28;20056;-82
2022/05/25 21:10:29;;;;;;;10.05;1.55;;;12.60;99.90;;;;;;5016742;28;20501;-82
2022/05/25 21:12:54;;;;;;;7.03;1.33;;;12.50;99.90;;;;;;5033359;28;20025;-83
2022/05/25 21:15:20;;;;;;;5.65;1.33;;;12.40;99.90;;;;;;5033883;28;20029;-82
2022/05/25 21:17:47;;;;;;;4.32;1.25;;;12.30;99.90;;;;;;5036868;28;20029;-81
2022/05/25 21:20:16;;;;;;;7.38;1.20;;;12.20;99.90;;;;;;5015895;28;20026;-80
2022/05/25 21:22:44;;;;;;;5.03;1.33;;;12.20;99.90;;;;;;5013912;28;20054;-86
2022/05/25 21:25:11;;;;;;;3.85;1.33;;;12.10;99.90;;;;;;5023641;28;20037;-82
2022/05/25 21:27:37;;;;;;;4.05;1.15;;;12.00;99.90;;;;;;5028982;28;20025;-87
2022/05/25 21:30:04;;;;;;;5.70;1.35;;;12.00;99.90;;;;;;5030374;28;20043;-87
2022/05/25 21:35:14;;;;;;;10.60;1.50;;;11.90;99.90;;;;;;5028179;28;20148;-84
2022/05/25 21:37:40;;;;;;;4.45;1.35;;;11.80;99.90;;;;;;5031521;28;20112;-81
2022/05/25 21:40:08;;;;;;;3.58;0.90;;;11.70;99.90;;;;;;5032691;28;20029;-81